createdAt,value
2018-08-14T00:02:02.947Z,1.50
2018-08-14T00:04:30.114Z,1.50
2018-08-14T00:06:57.255Z,1.60
2018-08-14T00:09:24.441Z,1.30
2018-08-14T00:11:52.126Z,1.70
2018-08-14T00:14:19.317Z,1.27
2018-08-14T00:16:46.490Z,1.87
2018-08-14T00:19:13.660Z,1.70
2018-08-14T00:21:40.855Z,1.53
2018-08-14T00:24:08.184Z,1.47
2018-08-14T00:26:35.338Z,1.20
2018-08-14T00:29:02.512Z,1.47
2018-08-14T00:31:29.669Z,1.50
2018-08-14T00:33:56.762Z,1.87
2018-08-14T00:36:23.901Z,1.83
2018-08-14T00:38:51.047Z,1.87
2018-08-14T00:41:18.248Z,1.10
2018-08-14T00:43:45.592Z,1.37
2018-08-14T00:46:12.819Z,1.47
2018-08-14T00:48:39.967Z,1.23
2018-08-14T00:51:07.127Z,1.67
2018-08-14T00:53:34.252Z,1.20
2018-08-14T00:56:01.422Z,1.30
2018-08-14T00:58:28.543Z,1.03
2018-08-14T01:00:55.699Z,1.10
2018-08-14T01:03:22.841Z,1.63
2018-08-14T01:05:49.977Z,1.37
2018-08-14T01:08:17.187Z,1.20
2018-08-14T01:10:44.509Z,1.90
2018-08-14T01:13:11.709Z,1.37
2018-08-14T01:15:38.852Z,1.43
2018-08-14T01:18:06.059Z,1.73
2018-08-14T01:20:33.258Z,1.70
2018-08-14T01:23:00.581Z,1.47
2018-08-14T01:25:27.751Z,1.50
2018-08-14T01:27:54.987Z,1.20
2018-08-14T01:30:24.222Z,1.47
2018-08-14T01:32:51.517Z,1.30
2018-08-14T01:35:18.857Z,1.43
2018-08-14T01:37:46.123Z,1.30
2018-08-14T01:40:13.351Z,1.40
2018-08-14T01:42:40.520Z,2.03
2018-08-14T01:45:09.258Z,1.30
2018-08-14T01:47:36.456Z,1.70
2018-08-14T01:50:04.681Z,1.80
2018-08-14T01:52:31.874Z,1.50
2018-08-14T01:54:59.042Z,1.40
2018-08-14T01:57:26.190Z,1.60
2018-08-14T01:59:53.433Z,1.47
2018-08-14T02:02:20.558Z,1.50
2018-08-14T02:04:47.791Z,1.40
2018-08-14T02:07:15.188Z,1.70
2018-08-14T02:09:43.881Z,1.10
2018-08-14T02:12:11.041Z,1.40
2018-08-14T02:14:38.243Z,1.10
2018-08-14T02:17:05.446Z,1.10
2018-08-14T02:19:32.568Z,1.30
2018-08-14T02:21:59.694Z,1.37
2018-08-14T02:24:26.846Z,1.33
2018-08-14T02:26:53.976Z,1.30
2018-08-14T02:29:21.127Z,1.20
2018-08-14T02:31:48.370Z,1.10
2018-08-14T02:34:15.791Z,1.00
2018-08-14T02:36:43.019Z,1.10
2018-08-14T02:39:11.363Z,1.20
2018-08-14T02:41:38.525Z,1.40
2018-08-14T02:44:05.892Z,1.03
2018-08-14T02:46:33.395Z,1.20
2018-08-14T02:49:00.537Z,1.40
2018-08-14T02:51:27.887Z,1.17
2018-08-14T02:53:55.051Z,0.97
2018-08-14T02:56:22.215Z,1.53
2018-08-14T02:58:49.440Z,1.20
2018-08-14T03:01:16.672Z,1.57
2018-08-14T03:03:43.952Z,1.37
2018-08-14T03:06:11.260Z,1.67
2018-08-14T03:08:38.449Z,1.10
2018-08-14T03:11:05.586Z,1.17
2018-08-14T03:13:32.727Z,1.23
2018-08-14T03:15:59.881Z,1.00
2018-08-14T03:18:27.023Z,0.97
2018-08-14T03:20:54.169Z,1.50
2018-08-14T03:23:21.384Z,1.17
2018-08-14T03:25:48.600Z,1.37
2018-08-14T03:28:15.788Z,1.10
2018-08-14T03:30:43.027Z,1.00
2018-08-14T03:33:10.179Z,1.20
2018-08-14T03:35:37.323Z,1.07
2018-08-14T03:38:04.651Z,1.80
2018-08-14T03:40:31.796Z,1.70
2018-08-14T03:42:58.918Z,1.20
2018-08-14T03:45:26.052Z,1.77
2018-08-14T03:47:53.203Z,1.60
2018-08-14T03:50:20.326Z,1.20
2018-08-14T03:52:47.610Z,1.40
2018-08-14T03:55:16.495Z,1.37
2018-08-14T03:57:43.752Z,1.20
2018-08-14T04:00:13.973Z,1.13
2018-08-14T04:02:41.396Z,2.10
2018-08-14T04:05:08.566Z,1.80
2018-08-14T04:07:35.702Z,1.20
2018-08-14T04:10:03.547Z,1.87
2018-08-14T04:12:30.703Z,1.60
2018-08-14T04:14:57.878Z,1.40
2018-08-14T04:17:25.072Z,1.70
2018-08-14T04:19:52.346Z,1.53
2018-08-14T04:22:19.469Z,1.77
2018-08-14T04:24:46.736Z,1.47
2018-08-14T04:27:13.963Z,1.40
2018-08-14T04:29:41.271Z,1.50
2018-08-14T04:32:08.423Z,1.37
2018-08-14T04:34:35.595Z,1.83
2018-08-14T04:37:02.768Z,1.60
2018-08-14T04:39:29.926Z,1.80
2018-08-14T04:41:57.070Z,1.20
2018-08-14T04:44:24.214Z,1.40
2018-08-14T04:46:51.366Z,1.47
2018-08-14T04:49:18.529Z,1.67
2018-08-14T04:51:45.721Z,1.47
2018-08-14T04:54:13.210Z,2.03
2018-08-14T04:56:40.606Z,2.00
2018-08-14T04:59:07.762Z,2.80
2018-08-14T05:01:34.952Z,2.13
2018-08-14T05:04:02.121Z,1.90
2018-08-14T05:06:29.352Z,2.27
2018-08-14T05:08:56.522Z,2.40
2018-08-14T05:11:23.703Z,2.60
2018-08-14T05:13:55.055Z,2.63
2018-08-14T05:16:22.409Z,2.43
2018-08-14T05:18:49.595Z,2.40
2018-08-14T05:21:16.820Z,2.30
2018-08-14T05:23:43.987Z,2.67
2018-08-14T05:26:11.238Z,2.00
2018-08-14T05:28:38.434Z,2.07
2018-08-14T05:31:05.579Z,2.03
2018-08-14T05:33:32.759Z,1.97
2018-08-14T05:35:59.862Z,2.37
2018-08-14T05:38:27.176Z,1.90
2018-08-14T05:40:54.344Z,1.80
2018-08-14T05:43:21.722Z,1.60
2018-08-14T05:45:48.956Z,2.00
2018-08-14T05:48:16.199Z,2.40
2018-08-14T05:50:43.399Z,2.00
2018-08-14T05:53:10.630Z,1.80
2018-08-14T05:55:37.757Z,2.30
2018-08-14T05:58:05.054Z,2.00
2018-08-14T06:00:32.404Z,2.40
2018-08-14T06:02:59.602Z,2.07
2018-08-14T06:05:26.904Z,2.20
2018-08-14T06:07:54.208Z,1.90
2018-08-14T06:10:21.930Z,2.37
2018-08-14T06:12:49.374Z,2.13
2018-08-14T06:15:17.421Z,2.10
2018-08-14T06:17:45.028Z,1.97
2018-08-14T06:20:13.463Z,1.50
2018-08-14T06:22:41.610Z,1.83
2018-08-14T06:25:09.827Z,1.93
2018-08-14T06:27:37.259Z,1.60
2018-08-14T06:30:08.830Z,1.50
2018-08-14T06:32:36.167Z,1.60
2018-08-14T06:35:03.972Z,1.87
2018-08-14T06:37:31.156Z,1.80
2018-08-14T06:39:58.428Z,1.80
2018-08-14T06:42:25.708Z,1.73
2018-08-14T06:44:53.182Z,1.60
2018-08-14T06:47:20.824Z,1.93
2018-08-14T06:49:48.334Z,1.97
2018-08-14T06:52:16.028Z,2.00
2018-08-14T06:54:43.455Z,1.70
2018-08-14T06:57:10.809Z,1.63
2018-08-14T06:59:38.071Z,1.70
2018-08-14T07:02:05.478Z,1.87
2018-08-14T07:04:32.791Z,1.63
2018-08-14T07:07:00.267Z,1.60
2018-08-14T07:09:27.597Z,1.70
2018-08-14T07:11:54.972Z,1.97
2018-08-14T07:14:22.288Z,2.07
2018-08-14T07:16:49.604Z,1.43
2018-08-14T07:19:17.036Z,1.50
2018-08-14T07:21:44.664Z,1.83
2018-08-14T07:24:12.262Z,1.93
2018-08-14T07:26:39.563Z,1.57
2018-08-14T07:29:06.917Z,1.90
2018-08-14T07:31:34.202Z,1.80
2018-08-14T07:34:01.505Z,2.03
2018-08-14T07:36:28.842Z,1.70
2018-08-14T07:38:56.144Z,1.82
2018-08-14T07:41:26.100Z,2.00
2018-08-14T07:43:54.649Z,2.10
2018-08-14T07:46:22.388Z,1.50
2018-08-14T07:48:49.769Z,1.60
2018-08-14T07:51:17.127Z,2.05
2018-08-14T07:53:44.568Z,1.67
2018-08-14T07:56:12.364Z,1.45
2018-08-14T07:58:39.644Z,1.57
2018-08-14T08:01:06.998Z,1.70
2018-08-14T08:03:34.358Z,1.70
2018-08-14T08:06:01.639Z,1.52
2018-08-14T08:08:28.939Z,1.57
2018-08-14T08:10:56.204Z,1.37
2018-08-14T08:13:23.515Z,1.47
2018-08-14T08:15:51.135Z,1.80
2018-08-14T08:18:18.780Z,1.60
2018-08-14T08:20:46.414Z,1.25
2018-08-14T08:23:13.872Z,1.52
2018-08-14T08:25:41.408Z,1.55
2018-08-14T08:28:08.695Z,1.42
2018-08-14T08:30:36.019Z,2.00
2018-08-14T08:33:03.299Z,1.45
2018-08-14T08:35:30.535Z,1.37
2018-08-14T08:37:58.180Z,1.60
2018-08-14T08:40:25.404Z,1.35
2018-08-14T08:42:52.643Z,1.60
2018-08-14T08:45:20.465Z,1.15
2018-08-14T08:47:48.350Z,1.20
2018-08-14T08:50:15.783Z,1.00
2018-08-14T08:52:43.938Z,1.30
2018-08-14T08:55:14.120Z,1.12
2018-08-14T08:57:41.554Z,2.30
2018-08-14T09:00:11.308Z,1.60
2018-08-14T09:02:38.732Z,1.15
2018-08-14T09:05:08.754Z,2.05
2018-08-14T09:07:36.195Z,1.30
2018-08-14T09:10:05.295Z,1.45
2018-08-14T09:12:32.657Z,1.40
2018-08-14T09:15:00.147Z,1.52
2018-08-14T09:17:27.470Z,1.75
2018-08-14T09:19:54.872Z,1.47
2018-08-14T09:22:22.401Z,1.57
2018-08-14T09:24:50.044Z,1.85
2018-08-14T09:27:17.836Z,1.60
2018-08-14T09:29:45.323Z,1.55
2018-08-14T09:32:12.933Z,1.30
2018-08-14T09:34:40.237Z,1.70
2018-08-14T09:37:07.820Z,1.77
2018-08-14T09:39:35.156Z,2.35
2018-08-14T09:42:02.497Z,2.08
2018-08-14T09:44:29.849Z,1.80
2018-08-14T09:46:57.088Z,1.70
2018-08-14T09:49:24.346Z,1.95
2018-08-14T09:51:51.740Z,1.72
2018-08-14T09:54:19.352Z,2.08
2018-08-14T09:56:46.923Z,2.05
2018-08-14T09:59:14.690Z,2.37
2018-08-14T10:01:47.854Z,2.00
2018-08-14T10:04:25.065Z,1.55
2018-08-14T10:06:58.129Z,2.67
2018-08-14T10:09:25.469Z,1.80
2018-08-14T10:11:52.791Z,2.33
2018-08-14T10:14:24.755Z,2.10
2018-08-14T10:16:52.183Z,2.02
2018-08-14T10:19:19.459Z,2.02
2018-08-14T10:21:46.790Z,1.80
2018-08-14T10:24:14.464Z,2.17
2018-08-14T10:26:41.908Z,1.50
2018-08-14T10:29:09.118Z,1.55
2018-08-14T10:31:36.330Z,1.45
2018-08-14T10:34:03.803Z,1.47
2018-08-14T10:36:31.115Z,1.82
2018-08-14T10:38:58.543Z,1.67
2018-08-14T10:41:25.850Z,1.75
2018-08-14T10:43:53.176Z,0.95
2018-08-14T10:46:20.617Z,1.37
2018-08-14T10:48:48.051Z,1.32
2018-08-14T10:51:15.816Z,1.60
2018-08-14T10:53:43.529Z,1.50
2018-08-14T10:56:10.817Z,1.42
2018-08-14T10:58:38.107Z,1.72
2018-08-14T11:01:05.304Z,1.62
2018-08-14T11:03:32.571Z,1.77
2018-08-14T11:05:59.868Z,1.50
2018-08-14T11:08:27.124Z,1.60
2018-08-14T11:11:00.286Z,1.50
2018-08-14T11:13:27.524Z,1.55
2018-08-14T11:15:54.781Z,1.55
2018-08-14T11:18:22.094Z,1.70
2018-08-14T11:20:49.432Z,1.92
2018-08-14T11:23:16.873Z,1.57
2018-08-14T11:25:44.415Z,1.30
2018-08-14T11:28:11.974Z,1.80
2018-08-14T11:30:39.220Z,1.32
2018-08-14T11:33:06.635Z,1.70
2018-08-14T11:35:39.532Z,1.70
2018-08-14T11:38:06.866Z,1.30
2018-08-14T11:40:34.250Z,1.70
2018-08-14T11:43:01.503Z,1.45
2018-08-14T11:45:28.759Z,1.65
2018-08-14T11:47:56.056Z,1.40
2018-08-14T11:50:23.279Z,1.62
2018-08-14T11:52:51.771Z,1.20
2018-08-14T11:55:19.996Z,1.45
2018-08-14T11:57:48.174Z,1.25
2018-08-14T12:00:19.717Z,1.40
2018-08-14T12:02:47.518Z,1.10
2018-08-14T12:05:15.163Z,1.55
2018-08-14T12:07:42.648Z,1.25
2018-08-14T12:10:11.271Z,1.30
2018-08-14T12:12:39.104Z,1.40
2018-08-14T12:15:07.492Z,1.45
2018-08-14T12:17:34.715Z,1.37
2018-08-14T12:20:02.033Z,1.10
2018-08-14T12:22:29.252Z,1.32
2018-08-14T12:24:56.452Z,1.30
2018-08-14T12:27:23.708Z,1.25
2018-08-14T12:29:50.950Z,1.30
2018-08-14T12:32:18.136Z,1.20
2018-08-14T12:34:45.311Z,1.60
2018-08-14T12:37:12.618Z,1.65
2018-08-14T12:39:39.800Z,1.27
2018-08-14T12:42:06.987Z,0.93
2018-08-14T12:44:34.143Z,1.25
2018-08-14T12:47:01.392Z,1.42
2018-08-14T12:49:28.876Z,1.17
2018-08-14T12:51:56.083Z,0.98
2018-08-14T12:54:23.295Z,1.17
2018-08-14T12:56:50.515Z,1.30
2018-08-14T12:59:17.756Z,1.20
2018-08-14T13:01:45.119Z,1.40
2018-08-14T13:04:12.393Z,1.32
2018-08-14T13:06:39.715Z,1.30
2018-08-14T13:09:08.856Z,1.20
2018-08-14T13:11:36.353Z,1.40
2018-08-14T13:14:03.816Z,1.25
2018-08-14T13:16:31.001Z,1.65
2018-08-14T13:18:58.166Z,1.32
2018-08-14T13:21:25.356Z,1.75
2018-08-14T13:23:52.547Z,1.50
2018-08-14T13:26:19.757Z,1.40
2018-08-14T13:28:46.985Z,1.55
2018-08-14T13:31:14.318Z,1.50
2018-08-14T13:33:41.467Z,1.57
2018-08-14T13:36:08.671Z,1.45
2018-08-14T13:38:35.925Z,1.52
2018-08-14T13:41:03.131Z,1.87
2018-08-14T13:43:30.312Z,2.22
2018-08-14T13:45:57.472Z,2.40
2018-08-14T13:48:24.684Z,2.17
2018-08-14T13:50:51.876Z,2.80
2018-08-14T13:53:19.217Z,2.33
2018-08-14T13:55:46.418Z,2.27
2018-08-14T13:58:13.647Z,2.15
2018-08-14T14:00:40.825Z,2.58
2018-08-14T14:03:08.037Z,2.50
2018-08-14T14:05:35.390Z,2.22
2018-08-14T14:08:02.637Z,2.27
2018-08-14T14:10:29.819Z,2.25
2018-08-14T14:12:57.072Z,2.10
2018-08-14T14:15:25.581Z,2.00
2018-08-14T14:17:53.639Z,2.20
2018-08-14T14:20:27.967Z,2.10
2018-08-14T14:22:55.162Z,2.00
2018-08-14T14:25:22.508Z,1.90
2018-08-14T14:27:49.841Z,1.80
2018-08-14T14:30:17.605Z,2.08
2018-08-14T14:32:45.055Z,1.75
2018-08-14T14:35:12.932Z,1.80
2018-08-14T14:37:40.531Z,1.92
2018-08-14T14:40:15.033Z,1.85
2018-08-14T14:42:43.376Z,2.08
2018-08-14T14:45:12.459Z,1.82
2018-08-14T14:47:40.298Z,2.00
2018-08-14T14:50:08.602Z,1.95
2018-08-14T14:52:35.831Z,2.15
2018-08-14T14:55:03.664Z,2.22
2018-08-14T14:57:30.884Z,2.35
2018-08-14T14:59:58.286Z,2.20
2018-08-14T15:02:25.612Z,2.12
2018-08-14T15:04:52.851Z,1.95
2018-08-14T15:07:20.099Z,1.90
2018-08-14T15:09:47.427Z,2.00
2018-08-14T15:12:14.908Z,1.85
2018-08-14T15:14:42.289Z,1.85
2018-08-14T15:17:09.572Z,1.98
2018-08-14T15:19:36.965Z,1.90
2018-08-14T15:22:04.192Z,2.02
2018-08-14T15:24:31.410Z,1.90
2018-08-14T15:26:58.631Z,2.20
2018-08-14T15:29:25.883Z,1.82
2018-08-14T15:31:56.406Z,2.22
2018-08-14T15:34:26.789Z,2.20
2018-08-14T15:36:56.283Z,1.90
2018-08-14T15:39:24.255Z,2.10
2018-08-14T15:41:51.837Z,2.12
2018-08-14T15:44:19.617Z,1.98
2018-08-14T15:46:46.888Z,2.37
2018-08-14T15:49:14.319Z,2.15
2018-08-14T15:51:42.889Z,2.40
2018-08-14T15:54:11.262Z,1.98
2018-08-14T15:56:39.029Z,2.00
2018-08-14T15:59:06.523Z,2.20
2018-08-14T16:01:34.044Z,2.40
2018-08-14T16:04:01.644Z,2.37
2018-08-14T16:06:29.081Z,2.02
2018-08-14T16:08:56.332Z,2.20
2018-08-14T16:11:23.500Z,2.15
2018-08-14T16:13:50.715Z,2.20
2018-08-14T16:16:17.935Z,2.15
2018-08-14T16:18:45.236Z,2.00
2018-08-14T16:21:12.688Z,2.50
2018-08-14T16:23:39.921Z,2.12
2018-08-14T16:26:07.147Z,2.08
2018-08-14T16:28:34.399Z,2.20
2018-08-14T16:31:01.587Z,2.00
2018-08-14T16:33:28.797Z,2.00
2018-08-14T16:35:55.970Z,2.20
2018-08-14T16:38:23.206Z,1.82
2018-08-14T16:40:50.474Z,2.00
2018-08-14T16:43:17.914Z,2.22
2018-08-14T16:45:45.166Z,2.37
2018-08-14T16:48:12.378Z,2.33
2018-08-14T16:50:39.610Z,2.25
2018-08-14T16:53:07.292Z,2.27
2018-08-14T16:55:34.683Z,2.35
2018-08-14T16:58:01.861Z,2.30
2018-08-14T17:00:33.996Z,2.20
2018-08-14T17:03:01.570Z,2.02
2018-08-14T17:05:28.731Z,2.08
2018-08-14T17:07:55.921Z,2.02
2018-08-14T17:10:24.149Z,2.08
2018-08-14T17:12:52.028Z,2.27
2018-08-14T17:15:19.239Z,1.90
2018-08-14T17:17:47.276Z,2.72
2018-08-14T17:20:13.832Z,2.50
2018-08-14T17:22:41.054Z,2.70
2018-08-14T17:25:08.218Z,2.27
2018-08-14T17:27:35.432Z,2.12
2018-08-14T17:30:03.797Z,2.47
2018-08-14T17:32:31.070Z,2.50
2018-08-14T17:34:58.239Z,2.60
2018-08-14T17:37:25.659Z,2.35
2018-08-14T17:39:52.927Z,3.07
2018-08-14T17:42:20.112Z,2.67
2018-08-14T17:44:47.394Z,3.22
2018-08-14T17:47:14.667Z,4.07
2018-08-14T17:49:41.842Z,4.60
2018-08-14T17:52:09.091Z,3.53
2018-08-14T17:54:36.294Z,5.13
2018-08-14T17:57:03.563Z,6.03
2018-08-14T17:59:30.757Z,5.80
2018-08-14T18:01:57.959Z,6.13
2018-08-14T18:04:25.182Z,6.60
2018-08-14T18:06:52.439Z,6.00
2018-08-14T18:09:19.699Z,6.43
2018-08-14T18:11:47.015Z,6.20
2018-08-14T18:14:14.276Z,5.73
2018-08-14T18:16:41.471Z,5.40
2018-08-14T18:19:08.629Z,5.73
2018-08-14T18:21:35.784Z,5.23
2018-08-14T18:24:03.044Z,4.30
2018-08-14T18:26:30.260Z,5.30
2018-08-14T18:28:57.435Z,6.27
2018-08-14T18:31:24.595Z,4.80
2018-08-14T18:33:51.791Z,5.03
2018-08-14T18:36:18.994Z,5.70
2018-08-14T18:38:46.536Z,4.57
2018-08-14T18:41:13.762Z,4.83
2018-08-14T18:43:41.005Z,5.07
2018-08-14T18:46:08.190Z,4.93
2018-08-14T18:48:35.335Z,5.43
2018-08-14T18:51:02.513Z,5.70
2018-08-14T18:53:29.682Z,5.23
2018-08-14T18:55:56.872Z,5.73
2018-08-14T18:58:24.241Z,5.57
2018-08-14T19:00:51.448Z,4.90
2018-08-14T19:03:18.678Z,5.60
2018-08-14T19:05:45.948Z,5.47
2018-08-14T19:08:13.288Z,5.77
2018-08-14T19:10:40.567Z,5.80
2018-08-14T19:13:07.715Z,5.13
2018-08-14T19:15:35.395Z,5.70
2018-08-14T19:18:02.640Z,6.27
2018-08-14T19:20:29.832Z,6.53
2018-08-14T19:22:56.992Z,6.20
2018-08-14T19:25:24.243Z,6.53
2018-08-14T19:27:51.475Z,6.13
2018-08-14T19:30:18.713Z,6.03
2018-08-14T19:32:46.152Z,6.10
2018-08-14T19:35:14.313Z,5.13
2018-08-14T19:37:41.517Z,5.87
2018-08-14T19:40:17.125Z,6.37
2018-08-14T19:42:44.769Z,5.13
2018-08-14T19:45:12.027Z,6.53
2018-08-14T19:47:39.492Z,5.93
2018-08-14T19:50:07.104Z,6.17
2018-08-14T19:52:34.739Z,5.50
2018-08-14T19:55:01.928Z,5.40
2018-08-14T19:57:29.961Z,5.93
2018-08-14T19:59:57.040Z,5.47
2018-08-14T20:02:24.215Z,5.80
2018-08-14T20:04:51.873Z,5.70
2018-08-14T20:07:19.484Z,5.60
2018-08-14T20:09:46.789Z,5.63
2018-08-14T20:12:14.082Z,5.43
2018-08-14T20:14:41.445Z,5.33
2018-08-14T20:17:08.583Z,5.43
2018-08-14T20:19:35.856Z,5.13
2018-08-14T20:22:03.064Z,6.27
2018-08-14T20:24:30.240Z,5.67
2018-08-14T20:26:57.666Z,5.90
2018-08-14T20:29:24.807Z,5.90
2018-08-14T20:31:52.469Z,6.87
2018-08-14T20:34:19.783Z,5.93
2018-08-14T20:36:47.100Z,6.40
2018-08-14T20:39:14.416Z,6.67
2018-08-14T20:41:41.699Z,6.10
2018-08-14T20:44:08.995Z,5.83
2018-08-14T20:46:36.222Z,6.17
2018-08-14T20:49:03.442Z,6.03
2018-08-14T20:51:30.627Z,6.27
2018-08-14T20:53:57.818Z,6.40
2018-08-14T20:56:25.000Z,7.20
2018-08-14T20:58:52.175Z,6.57
2018-08-14T21:01:19.366Z,6.97
2018-08-14T21:03:46.603Z,7.37
2018-08-14T21:06:13.910Z,7.33
2018-08-14T21:08:41.232Z,7.23
2018-08-14T21:11:08.426Z,7.20
2018-08-14T21:13:35.602Z,6.70
2018-08-14T21:16:08.551Z,8.00
2018-08-14T21:18:35.747Z,6.80
2018-08-14T21:21:02.983Z,7.43
2018-08-14T21:23:30.226Z,7.73
2018-08-14T21:25:57.486Z,6.57
2018-08-14T21:28:24.627Z,6.90
2018-08-14T21:30:51.824Z,7.13
2018-08-14T21:33:18.994Z,6.83
2018-08-14T21:35:46.222Z,7.03
2018-08-14T21:38:13.430Z,6.97
2018-08-14T21:40:40.576Z,7.40
2018-08-14T21:43:07.847Z,7.97
2018-08-14T21:45:35.040Z,7.27
2018-08-14T21:48:02.233Z,7.60
2018-08-14T21:50:29.419Z,7.23
2018-08-14T21:52:56.623Z,7.50
2018-08-14T21:55:23.761Z,7.63
2018-08-14T21:57:51.034Z,8.20
2018-08-14T22:00:22.151Z,8.03
2018-08-14T22:02:49.953Z,7.77
2018-08-14T22:05:17.388Z,7.50
2018-08-14T22:07:44.974Z,7.83
2018-08-14T22:10:12.801Z,9.03
2018-08-14T22:12:40.199Z,10.10
2018-08-14T22:15:07.612Z,10.13
2018-08-14T22:17:34.778Z,9.47
2018-08-14T22:20:01.902Z,9.53
2018-08-14T22:22:29.067Z,9.33
2018-08-14T22:24:56.472Z,11.87
2018-08-14T22:27:23.659Z,10.10
2018-08-14T22:29:50.836Z,10.63
2018-08-14T22:32:18.037Z,11.07
2018-08-14T22:34:45.286Z,11.83
2018-08-14T22:37:12.477Z,10.10
2018-08-14T22:39:39.666Z,10.23
2018-08-14T22:42:06.882Z,10.90
2018-08-14T22:44:34.086Z,9.47
2018-08-14T22:47:01.267Z,10.10
2018-08-14T22:49:28.431Z,10.00
2018-08-14T22:51:55.615Z,10.00
2018-08-14T22:54:22.826Z,11.67
2018-08-14T22:56:49.911Z,10.13
2018-08-14T22:59:17.191Z,10.27
2018-08-14T23:01:44.468Z,11.50
2018-08-14T23:04:11.683Z,11.00
2018-08-14T23:06:38.833Z,11.40
2018-08-14T23:09:06.978Z,11.43
2018-08-14T23:11:34.121Z,11.80
2018-08-14T23:14:01.292Z,11.77
2018-08-14T23:16:28.942Z,11.93
2018-08-14T23:18:56.147Z,12.30
2018-08-14T23:21:23.319Z,12.27
2018-08-14T23:23:50.505Z,12.33
2018-08-14T23:26:17.732Z,12.03
2018-08-14T23:28:44.966Z,12.00
2018-08-14T23:31:12.653Z,12.23
2018-08-14T23:33:39.804Z,10.50
2018-08-14T23:36:06.983Z,11.50
2018-08-14T23:38:34.168Z,11.57
2018-08-14T23:41:01.346Z,12.07
2018-08-14T23:43:28.522Z,11.57
2018-08-14T23:45:55.687Z,11.60
2018-08-14T23:48:22.898Z,10.87
2018-08-14T23:50:50.071Z,11.50
2018-08-14T23:53:17.295Z,11.20
2018-08-14T23:55:45.322Z,11.13
2018-08-14T23:58:12.490Z,10.00
